Portada
METAR-TAF:

METAR-TAF

Aeropuertos :

Aeropuerto de Valladolid

Valladolid, España

latitud: 41-43N, longitud: 004-51W, altitud: 849 m

Observación

El informe se hizo hace 35 minutos, a las 13:00 UTC
Viento 3 kt del este, variando entre norte y sureste
Temperatura 8°C
Humedad 46%
Presión 1032 hPa
Visibilidad 10 km o más
sin nubes por debajo de 1500 m y sin presencia de cumulonimbus.

METAR: LEVD 031300Z 09003KT 010V130 CAVOK 08/M03 Q1032

Hora: 14:35 (13:35 UTC)

Pronóstico

El informe se hizo hace 5 horas y 35 minutos, a las 08:00 UTC
Pronóstico válido del 03 a las 09 UTC al 04 a las 09 UTC
Viento 5 kt del noreste
Visibilidad 10 km o más
sin nubes por debajo de 1500 m y sin presencia de cumulonimbus.

TAF: LEVD 030800Z 0309/0409 04005KT CAVOK TX11/0315Z TNM02/0407Z

Observaciones y pronósticos meteorológicos de más de 4000 aeropuertos (mensajes METAR y TAF).

Los puntos amarillos y rojos representan las estaciones disponibles.

Ponga el ratón en el punto deseado para ver el nombre de la estación.

Haga clic para ver las observaciones y los pronósticos meteorológicos.

Para cambiar el mapa : haga clic en los botones verdes con una cruz de color negro para hacer un zoom, en el botón verde con un guión para alejar o en las flechas verdes para mapas adyacentes.


METAR-TAF: